createdAt,value
2017-10-31T00:02:16.653Z,2.53
2017-10-31T00:04:46.380Z,7.20
2017-10-31T00:07:15.308Z,6.90
2017-10-31T00:09:44.240Z,6.90
2017-10-31T00:12:13.596Z,8.40
2017-10-31T00:14:42.576Z,5.83
2017-10-31T00:17:11.511Z,5.03
2017-10-31T00:19:40.453Z,2.90
2017-10-31T00:22:09.770Z,3.23
2017-10-31T00:24:39.501Z,3.10
2017-10-31T00:27:09.221Z,4.90
2017-10-31T00:29:38.210Z,4.17
2017-10-31T00:32:07.513Z,3.57
2017-10-31T00:34:37.258Z,6.60
2017-10-31T00:37:06.235Z,6.83
2017-10-31T00:39:35.159Z,7.33
2017-10-31T00:42:04.137Z,4.17
2017-10-31T00:44:33.596Z,3.57
2017-10-31T00:47:02.503Z,5.00
2017-10-31T00:49:31.478Z,2.50
2017-10-31T00:52:01.169Z,3.37
2017-10-31T00:54:30.103Z,10.10
2017-10-31T00:56:59.028Z,3.67
2017-10-31T00:59:29.221Z,7.30
2017-10-31T01:01:58.154Z,3.03
2017-10-31T01:04:28.627Z,3.00
2017-10-31T01:06:58.306Z,5.63
2017-10-31T01:09:27.669Z,6.47
2017-10-31T01:12:03.763Z,6.93
2017-10-31T01:14:33.500Z,2.37
2017-10-31T01:17:03.179Z,5.87
2017-10-31T01:19:32.522Z,4.70
2017-10-31T01:22:02.612Z,2.40
2017-10-31T01:24:32.353Z,4.60
2017-10-31T01:27:01.314Z,4.80
2017-10-31T01:29:30.993Z,3.00
2017-10-31T01:31:59.941Z,5.07
2017-10-31T01:34:28.886Z,3.93
2017-10-31T01:36:57.840Z,5.40
2017-10-31T01:39:26.947Z,6.23
2017-10-31T01:41:55.873Z,3.47
2017-10-31T01:44:25.560Z,6.90
2017-10-31T01:46:54.508Z,4.07
2017-10-31T01:49:24.580Z,7.47
2017-10-31T01:51:53.532Z,2.77
2017-10-31T01:54:22.506Z,5.57
2017-10-31T01:56:51.430Z,4.17
2017-10-31T01:59:20.749Z,8.40
2017-10-31T02:01:49.692Z,5.27
2017-10-31T02:04:18.626Z,2.00
2017-10-31T02:06:47.591Z,3.73
2017-10-31T02:09:16.529Z,10.17
2017-10-31T02:11:46.260Z,7.53
2017-10-31T02:14:15.589Z,3.20
2017-10-31T02:16:44.526Z,6.87
2017-10-31T02:19:13.451Z,3.27
2017-10-31T02:21:42.816Z,4.47
2017-10-31T02:24:12.502Z,5.80
2017-10-31T02:26:41.421Z,3.07
2017-10-31T02:29:11.175Z,2.47
2017-10-31T02:31:40.103Z,2.80
2017-10-31T02:34:09.046Z,4.40
2017-10-31T02:36:38.803Z,4.47
2017-10-31T02:39:19.744Z,3.90
2017-10-31T02:41:48.702Z,6.23
2017-10-31T02:44:18.388Z,4.00
2017-10-31T02:46:48.107Z,5.10
2017-10-31T02:49:17.446Z,7.40
2017-10-31T02:51:46.392Z,3.67
2017-10-31T02:54:15.705Z,7.83
2017-10-31T02:56:44.661Z,3.43
2017-10-31T02:59:13.605Z,5.60
2017-10-31T03:01:42.972Z,3.83
2017-10-31T03:04:12.656Z,3.60
2017-10-31T03:06:41.579Z,3.87
2017-10-31T03:09:11.290Z,4.90
2017-10-31T03:11:40.254Z,4.20
2017-10-31T03:14:09.937Z,2.23
2017-10-31T03:16:39.648Z,2.30
2017-10-31T03:19:08.572Z,10.70
2017-10-31T03:21:38.300Z,5.10
2017-10-31T03:24:07.225Z,3.53
2017-10-31T03:26:36.955Z,4.23
2017-10-31T03:29:05.876Z,3.00
2017-10-31T03:31:34.791Z,7.00
2017-10-31T03:34:03.728Z,2.97
2017-10-31T03:36:32.793Z,4.17
2017-10-31T03:39:02.453Z,3.80
2017-10-31T03:41:31.395Z,1.90
2017-10-31T03:44:00.382Z,3.53
2017-10-31T03:46:29.848Z,4.63
2017-10-31T03:48:59.530Z,2.60
2017-10-31T03:51:28.474Z,4.00
2017-10-31T03:53:57.419Z,2.97
2017-10-31T03:56:27.135Z,6.20
2017-10-31T03:58:56.459Z,2.37
2017-10-31T04:01:25.413Z,2.70
2017-10-31T04:03:54.752Z,3.73
2017-10-31T04:06:23.684Z,5.30
2017-10-31T04:08:52.637Z,3.80
2017-10-31T04:11:21.571Z,3.53
2017-10-31T04:13:50.541Z,4.50
2017-10-31T04:16:19.882Z,2.27
2017-10-31T04:18:48.826Z,4.83
2017-10-31T04:21:17.760Z,2.37
2017-10-31T04:23:46.707Z,7.00
2017-10-31T04:26:15.617Z,3.33
2017-10-31T04:28:44.571Z,2.77
2017-10-31T04:31:13.903Z,2.57
2017-10-31T04:33:43.636Z,1.90
2017-10-31T04:36:12.547Z,5.70
2017-10-31T04:38:42.323Z,5.07
2017-10-31T04:41:11.643Z,2.97
2017-10-31T04:43:40.596Z,1.80
2017-10-31T04:46:09.515Z,3.57
2017-10-31T04:48:38.466Z,3.10
2017-10-31T04:51:07.391Z,2.80
2017-10-31T04:53:37.110Z,7.20
2017-10-31T04:56:06.806Z,3.90
2017-10-31T04:58:36.540Z,1.97
2017-10-31T05:01:06.343Z,6.00
2017-10-31T05:03:35.292Z,4.40
2017-10-31T05:06:04.613Z,3.20
2017-10-31T05:08:33.609Z,2.40
2017-10-31T05:11:02.542Z,2.93
2017-10-31T05:13:31.505Z,5.67
2017-10-31T05:16:00.437Z,5.27
2017-10-31T05:18:29.774Z,3.10
2017-10-31T05:20:58.729Z,5.67
2017-10-31T05:23:27.636Z,2.47
2017-10-31T05:25:56.567Z,2.50
2017-10-31T05:28:26.448Z,4.37
2017-10-31T05:30:55.835Z,3.00
2017-10-31T05:33:24.757Z,1.87
2017-10-31T05:35:53.701Z,7.00
2017-10-31T05:38:22.630Z,3.53
2017-10-31T05:40:51.585Z,2.33
2017-10-31T05:43:20.504Z,6.20
2017-10-31T05:45:49.444Z,2.23
2017-10-31T05:48:18.389Z,7.90
2017-10-31T05:50:47.327Z,1.47
2017-10-31T05:53:16.259Z,2.40
2017-10-31T05:55:45.235Z,4.23
2017-10-31T05:58:14.156Z,4.33
2017-10-31T06:00:43.085Z,5.93
2017-10-31T06:03:12.939Z,3.67
2017-10-31T06:05:42.264Z,2.83
2017-10-31T06:08:11.188Z,1.67
2017-10-31T06:10:40.108Z,3.47
2017-10-31T06:13:09.042Z,2.20
2017-10-31T06:15:38.258Z,3.27
2017-10-31T06:18:07.790Z,8.13
2017-10-31T06:20:36.710Z,3.80
2017-10-31T06:23:12.075Z,8.37
2017-10-31T06:26:00.717Z,6.17
2017-10-31T06:28:35.333Z,5.53
2017-10-31T06:31:09.986Z,5.13
2017-10-31T06:33:38.888Z,3.70
2017-10-31T06:36:08.630Z,3.60
2017-10-31T06:38:37.563Z,4.20
2017-10-31T06:41:06.501Z,2.83
2017-10-31T06:43:35.425Z,2.10
2017-10-31T06:46:04.393Z,2.40
2017-10-31T06:48:33.308Z,4.37
2017-10-31T06:51:02.624Z,3.40
2017-10-31T06:53:31.565Z,2.60
2017-10-31T06:56:00.536Z,6.57
2017-10-31T06:58:30.214Z,4.47
2017-10-31T07:00:59.199Z,2.57
2017-10-31T07:03:28.108Z,4.10
2017-10-31T07:05:57.461Z,3.40
2017-10-31T07:08:26.501Z,2.50
2017-10-31T07:10:55.428Z,6.20
2017-10-31T07:13:24.781Z,4.00
2017-10-31T07:15:53.777Z,6.03
2017-10-31T07:18:22.744Z,4.13
2017-10-31T07:20:52.543Z,2.27
2017-10-31T07:23:21.519Z,4.73
2017-10-31T07:25:51.492Z,2.70
2017-10-31T07:28:21.205Z,3.80
2017-10-31T07:30:50.856Z,4.20
2017-10-31T07:33:19.842Z,4.03
2017-10-31T07:35:48.875Z,3.20
2017-10-31T07:38:17.881Z,3.20
2017-10-31T07:40:46.858Z,5.30
2017-10-31T07:43:16.692Z,6.57
2017-10-31T07:45:46.540Z,5.03
2017-10-31T07:48:15.534Z,4.70
2017-10-31T07:50:44.518Z,3.77
2017-10-31T07:53:14.374Z,4.80
2017-10-31T07:55:43.345Z,4.40
2017-10-31T07:58:12.340Z,7.57
2017-10-31T08:00:41.934Z,5.33
2017-10-31T08:03:11.668Z,5.77
2017-10-31T08:05:40.687Z,6.13
2017-10-31T08:08:10.612Z,5.63
2017-10-31T08:10:40.384Z,6.93
2017-10-31T08:13:09.447Z,5.77
2017-10-31T08:15:38.504Z,6.27
2017-10-31T08:18:08.025Z,6.80
2017-10-31T08:20:37.826Z,2.87
2017-10-31T08:23:07.169Z,8.80
2017-10-31T08:25:36.206Z,4.67
2017-10-31T08:28:05.685Z,4.77
2017-10-31T08:30:34.640Z,8.20
2017-10-31T08:33:03.665Z,3.17
2017-10-31T08:35:32.636Z,4.87
2017-10-31T08:38:01.667Z,4.80
2017-10-31T08:40:31.627Z,5.40
2017-10-31T08:43:00.646Z,7.50
2017-10-31T08:45:29.996Z,5.83
2017-10-31T08:47:59.113Z,4.67
2017-10-31T08:50:28.545Z,4.33
2017-10-31T08:52:57.590Z,3.00
2017-10-31T08:55:26.671Z,8.03
2017-10-31T08:57:56.492Z,4.33
2017-10-31T09:00:26.260Z,2.73
2017-10-31T09:02:56.146Z,6.63
2017-10-31T09:05:25.141Z,4.80
2017-10-31T09:07:54.927Z,3.73
2017-10-31T09:10:23.941Z,5.40
2017-10-31T09:12:53.786Z,6.17
2017-10-31T09:15:22.851Z,3.43
2017-10-31T09:17:51.912Z,4.50
2017-10-31T09:20:21.689Z,3.67
2017-10-31T09:22:50.761Z,5.20
2017-10-31T09:25:20.609Z,4.03
2017-10-31T09:27:49.599Z,5.50
2017-10-31T09:30:19.689Z,2.33
2017-10-31T09:32:48.672Z,4.13
2017-10-31T09:35:18.074Z,4.20
2017-10-31T09:37:47.728Z,4.43
2017-10-31T09:40:18.348Z,6.17
2017-10-31T09:42:48.006Z,3.10
2017-10-31T09:45:17.004Z,7.13
2017-10-31T09:47:46.366Z,6.03
2017-10-31T09:50:15.720Z,7.00
2017-10-31T09:52:44.765Z,4.20
2017-10-31T09:55:14.310Z,3.73
2017-10-31T09:57:44.749Z,8.60
2017-10-31T10:00:14.853Z,4.73
2017-10-31T10:02:44.577Z,3.93
2017-10-31T10:05:13.595Z,4.80
2017-10-31T10:07:43.516Z,5.60
2017-10-31T10:10:13.617Z,5.03
2017-10-31T10:12:42.718Z,3.93
2017-10-31T10:15:11.726Z,6.10
2017-10-31T10:17:40.690Z,3.30
2017-10-31T10:20:09.672Z,6.57
2017-10-31T10:22:38.702Z,5.57
2017-10-31T10:25:08.268Z,6.97
2017-10-31T10:27:38.059Z,5.00
2017-10-31T10:30:07.553Z,4.70
2017-10-31T10:32:36.578Z,7.87
2017-10-31T10:35:05.557Z,6.30
2017-10-31T10:37:34.509Z,7.60
2017-10-31T10:40:03.541Z,6.10
2017-10-31T10:42:32.503Z,7.73
2017-10-31T10:45:02.866Z,7.90
2017-10-31T10:47:31.951Z,6.53
2017-10-31T10:50:02.479Z,10.83
2017-10-31T10:52:31.500Z,7.03
2017-10-31T10:55:00.476Z,7.30
2017-10-31T10:57:29.518Z,6.97
2017-10-31T10:59:58.515Z,7.43
2017-10-31T11:02:28.258Z,5.60
2017-10-31T11:04:57.304Z,7.63
2017-10-31T11:07:26.777Z,7.13
2017-10-31T11:09:55.789Z,5.70
2017-10-31T11:12:24.893Z,6.63
2017-10-31T11:14:53.882Z,6.90
2017-10-31T11:17:23.727Z,5.80
2017-10-31T11:19:53.094Z,5.30
2017-10-31T11:22:24.044Z,7.63
2017-10-31T11:24:53.847Z,8.90
2017-10-31T11:27:23.235Z,9.77
2017-10-31T11:29:52.648Z,5.90
2017-10-31T11:32:21.825Z,6.00
2017-10-31T11:34:51.628Z,7.00
2017-10-31T11:37:21.421Z,8.20
2017-10-31T11:39:52.588Z,6.17
2017-10-31T11:42:21.658Z,13.20
2017-10-31T11:44:50.845Z,11.20
2017-10-31T11:47:21.305Z,8.50
2017-10-31T11:49:51.066Z,9.50
2017-10-31T11:52:20.421Z,8.73
2017-10-31T11:54:49.649Z,12.60
2017-10-31T11:57:18.711Z,9.30
2017-10-31T11:59:48.516Z,7.30
2017-10-31T12:02:17.615Z,10.33
2017-10-31T12:04:47.404Z,7.40
2017-10-31T12:07:17.018Z,7.00
2017-10-31T12:09:46.460Z,7.23
2017-10-31T12:12:15.569Z,9.03
2017-10-31T12:14:45.308Z,4.53
2017-10-31T12:17:14.349Z,6.80
2017-10-31T12:19:43.336Z,6.43
2017-10-31T12:22:12.402Z,7.43
2017-10-31T12:24:42.459Z,5.50
2017-10-31T12:27:11.593Z,7.20
2017-10-31T12:29:40.552Z,5.00
2017-10-31T12:32:10.628Z,5.27
2017-10-31T12:34:39.693Z,5.83
2017-10-31T12:37:08.840Z,8.27
2017-10-31T12:39:38.587Z,8.47
2017-10-31T12:42:07.651Z,5.97
2017-10-31T12:44:37.210Z,7.33
2017-10-31T12:47:06.842Z,11.70
2017-10-31T12:49:36.710Z,8.00
2017-10-31T12:52:05.758Z,10.90
2017-10-31T12:54:34.761Z,7.40
2017-10-31T12:57:03.764Z,5.73
2017-10-31T12:59:32.743Z,8.03
2017-10-31T13:02:03.710Z,12.73
2017-10-31T13:04:32.748Z,12.13
2017-10-31T13:07:01.828Z,8.33
2017-10-31T13:09:31.397Z,6.50
2017-10-31T13:12:01.374Z,6.63
2017-10-31T13:14:31.164Z,9.77
2017-10-31T13:17:00.254Z,9.13
2017-10-31T13:19:29.665Z,6.53
2017-10-31T13:21:59.500Z,10.03
2017-10-31T13:24:28.577Z,10.40
2017-10-31T13:26:57.929Z,16.73
2017-10-31T13:29:27.906Z,8.53
2017-10-31T13:31:58.076Z,8.57
2017-10-31T13:34:28.426Z,9.10
2017-10-31T13:36:58.492Z,8.33
2017-10-31T13:39:28.056Z,10.60
2017-10-31T13:41:58.303Z,12.43
2017-10-31T13:44:27.781Z,17.27
2017-10-31T13:46:58.100Z,14.13
2017-10-31T13:49:28.864Z,9.93
2017-10-31T13:51:58.249Z,9.43
2017-10-31T13:54:27.261Z,11.57
2017-10-31T13:56:57.267Z,10.93
2017-10-31T13:59:26.295Z,14.57
2017-10-31T14:01:57.463Z,8.40
2017-10-31T14:04:27.517Z,14.80
2017-10-31T14:06:57.402Z,11.77
2017-10-31T14:09:28.633Z,12.63
2017-10-31T14:11:58.492Z,9.53
2017-10-31T14:14:27.616Z,9.83
2017-10-31T14:16:57.507Z,7.60
2017-10-31T14:19:26.934Z,9.20
2017-10-31T14:21:56.555Z,6.53
2017-10-31T14:24:25.587Z,8.40
2017-10-31T14:26:55.765Z,10.43
2017-10-31T14:29:25.336Z,10.90
2017-10-31T14:31:55.521Z,10.13
2017-10-31T14:34:25.370Z,11.60
2017-10-31T14:36:54.577Z,12.40
2017-10-31T14:39:23.614Z,8.70
2017-10-31T14:41:52.985Z,13.47
2017-10-31T14:44:22.746Z,11.30
2017-10-31T14:46:52.811Z,10.20
2017-10-31T14:49:21.953Z,7.20
2017-10-31T14:51:51.742Z,9.67
2017-10-31T14:54:21.513Z,10.93
2017-10-31T14:56:50.538Z,11.00
2017-10-31T14:59:20.008Z,12.57
2017-10-31T15:01:49.075Z,8.37
2017-10-31T15:04:18.054Z,13.30
2017-10-31T15:06:47.516Z,11.63
2017-10-31T15:09:17.074Z,10.07
2017-10-31T15:11:46.112Z,12.37
2017-10-31T15:14:15.638Z,12.30
2017-10-31T15:16:45.451Z,12.93
2017-10-31T15:19:15.321Z,8.23
2017-10-31T15:21:45.194Z,12.13
2017-10-31T15:24:14.637Z,16.07
2017-10-31T15:26:43.678Z,10.00
2017-10-31T15:29:13.485Z,13.70
2017-10-31T15:31:43.293Z,12.97
2017-10-31T15:34:13.117Z,9.03
2017-10-31T15:36:43.051Z,11.10
2017-10-31T15:39:12.115Z,13.73
2017-10-31T15:41:41.149Z,12.30
2017-10-31T15:44:10.257Z,10.07
2017-10-31T15:46:40.526Z,9.30
2017-10-31T15:49:09.621Z,10.13
2017-10-31T15:51:39.758Z,11.70
2017-10-31T15:54:08.961Z,13.00
2017-10-31T15:56:38.100Z,15.63
2017-10-31T15:59:07.111Z,10.77
2017-10-31T16:01:36.132Z,14.70
2017-10-31T16:04:06.909Z,10.30
2017-10-31T16:06:37.288Z,17.10
2017-10-31T16:09:07.273Z,11.17
2017-10-31T16:11:36.459Z,14.97
2017-10-31T16:14:05.559Z,16.17
2017-10-31T16:16:34.711Z,15.80
2017-10-31T16:19:03.775Z,15.00
2017-10-31T16:21:33.256Z,10.50
2017-10-31T16:24:02.471Z,12.27
2017-10-31T16:26:31.561Z,14.77
2017-10-31T16:29:00.657Z,13.00
2017-10-31T16:31:30.430Z,14.23
2017-10-31T16:33:59.424Z,14.07
2017-10-31T16:36:28.436Z,16.37
2017-10-31T16:38:57.515Z,17.03
2017-10-31T16:41:26.466Z,16.17
2017-10-31T16:43:55.443Z,17.90
2017-10-31T16:46:24.855Z,19.27
2017-10-31T16:48:53.831Z,16.40
2017-10-31T16:51:22.854Z,20.50
2017-10-31T16:53:52.228Z,16.50
2017-10-31T16:56:21.204Z,16.93
2017-10-31T16:58:50.575Z,18.50
2017-10-31T17:01:20.380Z,19.23
2017-10-31T17:03:49.372Z,22.30
2017-10-31T17:06:18.735Z,21.13
2017-10-31T17:08:47.722Z,20.97
2017-10-31T17:11:16.677Z,21.40
2017-10-31T17:13:45.663Z,22.83
2017-10-31T17:16:14.637Z,25.47
2017-10-31T17:18:43.632Z,23.20
2017-10-31T17:21:12.662Z,20.60
2017-10-31T17:23:42.422Z,23.90
2017-10-31T17:26:11.386Z,24.93
2017-10-31T17:28:40.385Z,24.83
2017-10-31T17:31:09.394Z,25.30
2017-10-31T17:33:38.541Z,26.43
2017-10-31T17:36:08.302Z,28.20
2017-10-31T17:38:37.283Z,32.23
2017-10-31T17:41:06.248Z,24.03
2017-10-31T17:43:35.456Z,29.30
2017-10-31T17:46:04.399Z,27.10
2017-10-31T17:48:33.431Z,25.57
2017-10-31T17:51:03.169Z,25.03
2017-10-31T17:53:32.175Z,28.13
2017-10-31T17:56:01.207Z,28.60
2017-10-31T17:58:30.175Z,32.03
2017-10-31T18:00:59.190Z,33.83
2017-10-31T18:03:28.188Z,27.57
2017-10-31T18:05:57.559Z,30.13
2017-10-31T18:08:26.553Z,32.60
2017-10-31T18:10:56.522Z,31.93
2017-10-31T18:13:25.936Z,32.80
2017-10-31T18:15:55.101Z,37.07
2017-10-31T18:18:25.744Z,32.27
2017-10-31T18:20:55.520Z,26.80
2017-10-31T18:23:25.298Z,30.63
2017-10-31T18:25:54.646Z,29.80
2017-10-31T18:28:26.090Z,34.90
2017-10-31T18:30:57.302Z,35.93
2017-10-31T18:33:27.537Z,40.50
2017-10-31T18:35:58.057Z,33.60
2017-10-31T18:38:27.834Z,36.37
2017-10-31T18:40:56.837Z,34.63
2017-10-31T18:43:27.108Z,36.80
2017-10-31T18:45:56.851Z,33.57
2017-10-31T18:48:25.877Z,43.10
2017-10-31T18:50:56.332Z,39.23
2017-10-31T18:53:26.119Z,38.87
2017-10-31T18:55:55.495Z,39.53
2017-10-31T18:58:24.514Z,46.10
2017-10-31T19:00:53.541Z,40.03
2017-10-31T19:03:23.559Z,42.13
2017-10-31T19:05:52.616Z,46.00
2017-10-31T19:08:22.388Z,44.13
2017-10-31T19:10:51.422Z,42.93
2017-10-31T19:13:20.463Z,39.97
2017-10-31T19:15:49.849Z,41.03
2017-10-31T19:18:19.263Z,42.47
2017-10-31T19:20:48.238Z,47.93
2017-10-31T19:23:18.821Z,48.93
2017-10-31T19:25:50.425Z,40.63
2017-10-31T19:28:20.212Z,46.63
2017-10-31T19:30:49.283Z,47.33
2017-10-31T19:33:18.410Z,52.13
2017-10-31T19:35:48.161Z,61.23
2017-10-31T19:38:18.440Z,46.97
2017-10-31T19:40:48.166Z,54.60
2017-10-31T19:43:17.208Z,43.67
2017-10-31T19:45:46.246Z,48.70
2017-10-31T19:48:15.707Z,46.50
2017-10-31T19:50:46.536Z,47.13
2017-10-31T19:53:15.949Z,50.97
2017-10-31T19:55:45.753Z,55.90
2017-10-31T19:58:15.273Z,41.30
2017-10-31T20:00:44.798Z,44.37
2017-10-31T20:03:14.301Z,45.97
2017-10-31T20:05:43.761Z,45.43
2017-10-31T20:08:13.455Z,49.37
2017-10-31T20:10:44.177Z,46.83
2017-10-31T20:13:13.319Z,47.53
2017-10-31T20:15:42.307Z,49.77
2017-10-31T20:18:12.212Z,53.70
2017-10-31T20:20:42.648Z,51.30
2017-10-31T20:23:12.149Z,50.53
2017-10-31T20:25:41.251Z,55.17
2017-10-31T20:28:10.343Z,53.37
2017-10-31T20:30:39.715Z,53.90
2017-10-31T20:33:09.386Z,49.00
2017-10-31T20:35:39.172Z,51.80
2017-10-31T20:38:08.216Z,50.73
2017-10-31T20:40:37.223Z,54.13
2017-10-31T20:43:06.771Z,51.60
2017-10-31T20:45:35.976Z,50.70
2017-10-31T20:48:05.409Z,43.87
2017-10-31T20:50:35.608Z,47.30
2017-10-31T20:53:04.624Z,56.43
2017-10-31T20:55:34.223Z,48.07
2017-10-31T20:58:03.246Z,52.70
2017-10-31T21:00:33.064Z,52.50
2017-10-31T21:03:02.078Z,52.10
2017-10-31T21:05:31.528Z,44.13
2017-10-31T21:08:00.489Z,48.30
2017-10-31T21:10:31.709Z,42.20
2017-10-31T21:13:01.280Z,46.40
2017-10-31T21:15:30.686Z,41.03
2017-10-31T21:17:59.655Z,37.90
2017-10-31T21:20:28.668Z,42.13
2017-10-31T21:22:57.640Z,39.57
2017-10-31T21:25:26.628Z,44.50
2017-10-31T21:27:55.608Z,39.77
2017-10-31T21:30:24.609Z,42.93
2017-10-31T21:32:53.975Z,42.53
2017-10-31T21:35:23.372Z,49.60
2017-10-31T21:37:52.371Z,36.83
2017-10-31T21:40:21.781Z,39.67
2017-10-31T21:42:51.521Z,39.70
2017-10-31T21:45:20.500Z,41.80
2017-10-31T21:47:49.882Z,42.67
2017-10-31T21:50:19.648Z,41.60
2017-10-31T21:52:48.581Z,44.27
2017-10-31T21:55:19.063Z,36.33
2017-10-31T21:57:48.031Z,37.23
2017-10-31T22:00:17.010Z,38.10
2017-10-31T22:02:46.006Z,38.43
2017-10-31T22:05:14.950Z,41.53
2017-10-31T22:07:43.953Z,38.93
2017-10-31T22:10:13.696Z,37.03
2017-10-31T22:12:42.673Z,38.17
2017-10-31T22:15:12.406Z,38.70
2017-10-31T22:17:41.343Z,34.10
2017-10-31T22:20:10.708Z,36.33
2017-10-31T22:22:39.670Z,36.50
2017-10-31T22:25:08.684Z,33.83
2017-10-31T22:27:37.625Z,40.27
2017-10-31T22:30:07.374Z,44.30
2017-10-31T22:32:36.341Z,36.17
2017-10-31T22:35:06.125Z,38.83
2017-10-31T22:37:35.858Z,36.80
2017-10-31T22:40:05.241Z,40.37
2017-10-31T22:42:34.593Z,39.83
2017-10-31T22:45:03.555Z,43.20
2017-10-31T22:47:32.513Z,38.83
2017-10-31T22:50:02.262Z,37.53
2017-10-31T22:52:31.192Z,34.43
2017-10-31T22:55:00.181Z,36.03
2017-10-31T22:57:29.109Z,29.50
2017-10-31T22:59:58.853Z,37.60
2017-10-31T23:02:27.803Z,41.30
2017-10-31T23:04:56.764Z,37.00
2017-10-31T23:07:25.719Z,37.10
2017-10-31T23:09:54.686Z,38.80
2017-10-31T23:12:24.407Z,38.77
2017-10-31T23:14:54.147Z,40.27
2017-10-31T23:17:23.109Z,36.07
2017-10-31T23:19:52.087Z,42.47
2017-10-31T23:22:25.190Z,41.77
2017-10-31T23:24:57.691Z,36.53
2017-10-31T23:27:26.617Z,45.03
2017-10-31T23:29:55.988Z,38.87
2017-10-31T23:32:25.701Z,38.00
2017-10-31T23:34:54.702Z,42.80
2017-10-31T23:37:23.643Z,41.80
2017-10-31T23:40:04.826Z,43.20
2017-10-31T23:42:50.789Z,44.07
2017-10-31T23:45:32.001Z,48.73
2017-10-31T23:48:04.688Z,39.53
2017-10-31T23:50:39.271Z,48.93
2017-10-31T23:53:19.980Z,54.90
2017-10-31T23:55:49.733Z,48.20
2017-10-31T23:58:18.669Z,48.93
